Time;durP1;ratioP1;P1;durP2;ratioP2;P2;SDS_P1;SDS_P2;PMS_P1;PMS_P2;Temp;Humidity;BMP_temperature;BMP_pressure;BME280_temperature;BME280_humidity;BME280_pressure;Samples;Min_cycle;Max_cycle;Signal;HPM_P1;HPM_P2
2023/06/12 00:01:20;;;;;;;9.07;5.53;;;;;;;17.96;54.56;101049.84;6045923;28;20465;-67
2023/06/12 00:04:15;;;;;;;11.35;6.00;;;;;;;17.92;55.03;101052.06;6019946;28;20029;-67
2023/06/12 00:07:11;;;;;;;9.90;5.07;;;;;;;17.70;55.53;101050.28;6022448;28;20076;-67
2023/06/12 00:10:07;;;;;;;9.55;5.22;;;;;;;17.53;56.43;101038.91;6034968;28;20049;-67
2023/06/12 00:13:02;;;;;;;9.77;5.32;;;;;;;17.40;56.92;101033.28;6047970;28;20038;-67
2023/06/12 00:15:58;;;;;;;8.27;5.23;;;;;;;17.53;57.46;101054.97;6021062;28;20034;-67
2023/06/12 00:18:53;;;;;;;9.47;5.07;;;;;;;17.49;57.47;101059.03;6038903;28;20037;-67
2023/06/12 00:21:48;;;;;;;11.60;5.53;;;;;;;17.49;58.07;101052.81;6027877;28;20061;-67
2023/06/12 00:24:43;;;;;;;11.37;5.37;;;;;;;17.31;58.61;101053.19;6017233;28;20498;-67
2023/06/12 00:27:39;;;;;;;9.67;5.43;;;;;;;17.07;59.47;101035.44;6036389;28;20042;-67
2023/06/12 00:30:34;;;;;;;9.73;5.63;;;;;;;17.15;59.88;101055.97;6046995;28;20033;-67
2023/06/12 00:33:30;;;;;;;10.07;5.23;;;;;;;17.09;60.00;101059.38;6037177;28;20056;-67
2023/06/12 00:36:26;;;;;;;9.15;5.05;;;;;;;17.06;60.87;101062.44;6038119;28;20292;-67
2023/06/12 00:39:22;;;;;;;10.70;5.78;;;;;;;16.93;60.92;101043.44;6048755;28;20036;-67
2023/06/12 00:42:17;;;;;;;10.93;5.60;;;;;;;16.98;61.37;101057.13;6024492;28;20023;-68
2023/06/12 00:45:13;;;;;;;9.63;5.80;;;;;;;16.97;61.92;101058.13;6029898;28;20027;-67
2023/06/12 00:48:09;;;;;;;9.68;6.30;;;;;;;16.90;62.48;101068.75;6036368;28;20661;-67
2023/06/12 00:51:08;;;;;;;12.00;5.95;;;;;;;16.96;62.86;101064.53;6025758;28;20040;-68
2023/06/12 00:54:03;;;;;;;11.45;5.28;;;;;;;16.85;62.68;101060.38;6037842;28;20029;-68
2023/06/12 00:56:58;;;;;;;11.40;5.90;;;;;;;16.79;63.02;101046.88;6027533;28;20062;-67
2023/06/12 00:59:54;;;;;;;9.73;5.93;;;;;;;16.73;63.45;101061.81;6022359;28;20289;-66
2023/06/12 01:02:51;;;;;;;11.57;5.75;;;;;;;16.54;64.37;101055.06;6035973;28;20281;-67
2023/06/12 01:05:46;;;;;;;12.13;6.10;;;;;;;16.57;64.36;101056.56;6059474;28;20031;-67
2023/06/12 01:08:58;;;;;;;11.47;5.53;;;;;;;16.66;64.85;101074.22;6033162;28;20034;-66
2023/06/12 01:11:54;;;;;;;12.35;5.90;;;;;;;16.47;65.39;101067.44;6039876;28;20053;-67
2023/06/12 01:14:50;;;;;;;10.90;5.75;;;;;;;16.35;66.04;101066.19;6028383;28;20517;-66
2023/06/12 01:17:45;;;;;;;10.93;6.07;;;;;;;16.35;66.64;101066.19;6032802;28;20039;-66
2023/06/12 01:20:41;;;;;;;13.25;6.15;;;;;;;16.30;66.52;101065.88;6042267;28;20034;-67
2023/06/12 01:23:39;;;;;;;13.25;6.00;;;;;;;16.25;66.93;101072.75;6029179;28;20037;-66
2023/06/12 01:27:12;;;;;;;11.70;5.53;;;;;;;16.21;66.78;101072.28;6019850;28;20474;-67
2023/06/12 01:30:40;;;;;;;10.52;5.63;;;;;;;16.25;66.69;101067.41;6042959;28;20129;-67
2023/06/12 01:33:38;;;;;;;13.05;6.20;;;;;;;16.15;67.08;101067.59;6032866;28;20442;-67
2023/06/12 01:36:37;;;;;;;12.77;5.60;;;;;;;16.22;66.48;101060.56;6035382;28;20056;-67
2023/06/12 01:39:37;;;;;;;8.95;5.15;;;;;;;16.22;65.61;101052.53;6041194;28;20033;-67
2023/06/12 01:42:33;;;;;;;8.70;5.55;;;;;;;16.39;65.58;101062.13;6030329;28;20030;-67
2023/06/12 01:45:28;;;;;;;10.00;5.80;;;;;;;16.24;65.39;101047.00;6036743;28;20516;-67
2023/06/12 01:48:23;;;;;;;10.70;5.67;;;;;;;16.36;65.09;101048.28;6039047;28;20026;-67
2023/06/12 01:51:19;;;;;;;10.82;5.90;;;;;;;16.49;64.57;101069.97;6034554;28;20744;-67
2023/06/12 01:54:15;;;;;;;11.37;5.83;;;;;;;16.41;65.37;101070.84;6037873;28;20034;-66
2023/06/12 01:57:11;;;;;;;9.98;5.28;;;;;;;16.46;64.51;101071.16;6048685;28;20026;-66
2023/06/12 02:00:09;;;;;;;11.15;5.40;;;;;;;16.31;64.85;101054.16;6021382;28;20030;-66
2023/06/12 02:03:04;;;;;;;9.98;5.55;;;;;;;16.40;64.17;101057.63;6034629;28;20076;-66
2023/06/12 02:05:59;;;;;;;11.93;5.68;;;;;;;16.35;65.42;101074.22;6041229;28;20450;-66
2023/06/12 02:08:55;;;;;;;10.47;5.50;;;;;;;16.12;66.31;101065.28;6028150;28;20045;-66
2023/06/12 02:11:50;;;;;;;9.90;6.10;;;;;;;15.97;66.89;101069.69;6035371;28;20023;-66
2023/06/12 02:14:47;;;;;;;9.97;5.63;;;;;;;15.93;67.33;101068.34;6022463;28;20293;-66
2023/06/12 02:17:42;;;;;;;11.23;5.72;;;;;;;15.89;68.54;101067.88;6033967;28;20088;-66
2023/06/12 02:20:38;;;;;;;10.40;5.47;;;;;;;16.01;68.21;101065.66;6041193;28;20030;-66
2023/06/12 02:23:33;;;;;;;13.82;6.38;;;;;;;16.03;69.00;101077.03;6027752;28;20587;-66
2023/06/12 02:26:28;;;;;;;12.47;6.30;;;;;;;15.97;68.43;101067.00;6024741;28;20039;-66
2023/06/12 02:29:24;;;;;;;10.90;5.87;;;;;;;15.93;68.91;101068.34;6044348;28;20040;-66
2023/06/12 02:32:19;;;;;;;11.18;6.57;;;;;;;15.88;69.27;101074.22;6033209;28;20022;-66
2023/06/12 02:35:15;;;;;;;12.60;7.17;;;;;;;15.78;69.53;101080.78;6025742;28;20045;-66
2023/06/12 02:38:10;;;;;;;12.65;6.03;;;;;;;15.63;69.80;101063.75;6040486;28;20075;-66
2023/06/12 02:41:11;;;;;;;16.30;6.27;;;;;;;15.66;70.35;101082.13;6035906;28;20041;-67
2023/06/12 02:44:07;;;;;;;11.07;6.68;;;;;;;15.77;70.29;101085.28;6030616;28;20323;-67
2023/06/12 02:47:02;;;;;;;11.07;6.53;;;;;;;15.95;69.63;101085.09;6047997;28;20026;-67
2023/06/12 02:49:57;;;;;;;10.85;6.30;;;;;;;16.01;68.90;101092.41;6022977;28;20030;-67
2023/06/12 02:52:53;;;;;;;16.13;6.30;;;;;;;15.90;69.75;101085.56;6040402;28;20548;-67
2023/06/12 02:55:49;;;;;;;10.57;6.50;;;;;;;15.62;70.40;101086.16;6047070;28;20038;-66
2023/06/12 02:58:46;;;;;;;12.07;6.55;;;;;;;15.69;71.07;101103.16;6022011;28;20043;-67
2023/06/12 03:01:43;;;;;;;13.88;6.60;;;;;;;15.54;71.33;101100.38;6014995;28;20026;-67
2023/06/12 03:04:39;;;;;;;24.52;9.43;;;;;;;15.31;72.46;101100.16;6034063;28;20095;-66
2023/06/12 03:07:36;;;;;;;15.30;7.97;;;;;;;15.19;72.53;101093.47;6038635;28;20038;-66
2023/06/12 03:10:32;;;;;;;13.00;6.88;;;;;;;15.23;73.36;101097.50;6033469;28;20036;-66
2023/06/12 03:13:27;;;;;;;13.73;6.60;;;;;;;15.18;73.70;101105.19;6030917;28;20027;-67
2023/06/12 03:16:24;;;;;;;12.80;7.18;;;;;;;15.19;73.71;101106.81;6020925;28;20446;-67
2023/06/12 03:19:19;;;;;;;13.63;7.10;;;;;;;15.21;73.91;101104.84;6039745;28;20038;-67
2023/06/12 03:22:15;;;;;;;12.60;6.40;;;;;;;15.22;73.95;101098.47;6034739;28;20076;-67
2023/06/12 03:25:10;;;;;;;11.27;7.00;;;;;;;15.36;73.55;101103.16;6034842;28;20034;-67
2023/06/12 03:28:06;;;;;;;14.77;7.30;;;;;;;15.13;74.32;101088.81;6030725;28;20033;-67
2023/06/12 03:31:01;;;;;;;12.95;6.78;;;;;;;15.09;74.88;101097.31;6044757;28;20520;-67
2023/06/12 03:33:57;;;;;;;11.52;7.28;;;;;;;15.21;74.27;101104.84;6048928;28;20054;-67
2023/06/12 03:36:52;;;;;;;13.70;6.57;;;;;;;15.30;73.90;101106.50;6033255;28;20041;-67
2023/06/12 03:39:47;;;;;;;12.70;6.88;;;;;;;15.47;73.61;101121.56;6045219;28;20039;-67
2023/06/12 03:42:43;;;;;;;10.87;6.07;;;;;;;15.48;73.06;101101.88;6039515;28;20033;-67
2023/06/12 03:45:38;;;;;;;17.35;7.07;;;;;;;15.64;72.95;101118.88;6037376;28;20120;-67
2023/06/12 03:48:33;;;;;;;18.00;6.87;;;;;;;15.80;72.59;101105.50;6040740;28;20034;-67
2023/06/12 03:51:29;;;;;;;11.47;6.63;;;;;;;15.88;72.71;101113.50;6033893;28;20539;-67
2023/06/12 03:54:24;;;;;;;11.07;6.90;;;;;;;16.04;72.13;101113.47;6043612;28;20033;-67
2023/06/12 03:57:20;;;;;;;11.45;6.43;;;;;;;16.19;70.88;101114.44;6036430;28;20037;-67
2023/06/12 04:00:16;;;;;;;12.68;6.68;;;;;;;16.27;70.60;101103.69;6041342;28;20045;-67
2023/06/12 04:03:14;;;;;;;12.48;6.22;;;;;;;16.39;70.15;101101.44;6032637;28;20524;-67
2023/06/12 04:06:09;;;;;;;11.35;6.63;;;;;;;16.61;69.19;101116.78;6046709;28;20049;-67
2023/06/12 04:09:05;;;;;;;11.83;6.03;;;;;;;16.62;69.07;101105.91;6045964;28;20481;-67
2023/06/12 04:12:00;;;;;;;11.20;6.22;;;;;;;16.83;68.86;101125.88;6024260;28;20030;-67
2023/06/12 04:14:56;;;;;;;10.43;6.00;;;;;;;16.85;68.67;101129.22;6030034;28;20053;-66
2023/06/12 04:17:51;;;;;;;10.27;6.40;;;;;;;16.87;68.82;101132.56;6050222;28;20273;-67
2023/06/12 04:20:46;;;;;;;11.43;6.95;;;;;;;17.02;68.22;101120.06;6051788;28;20068;-67
2023/06/12 04:23:47;;;;;;;11.07;6.23;;;;;;;17.39;66.93;101128.19;6026436;28;20029;-68
2023/06/12 04:26:46;;;;;;;11.30;6.25;;;;;;;17.64;66.53;101116.22;6024683;28;20054;-67
2023/06/12 04:29:42;;;;;;;10.07;6.13;;;;;;;18.18;63.84;101129.44;6021095;28;20030;-67
2023/06/12 04:32:38;;;;;;;12.05;6.18;;;;;;;18.29;63.56;101137.03;6040299;28;20042;-67
2023/06/12 04:35:34;;;;;;;10.63;6.10;;;;;;;18.38;62.51;101117.13;6038677;28;20115;-67
2023/06/12 04:38:32;;;;;;;9.10;5.75;;;;;;;18.34;63.16;101115.84;6042754;28;20034;-67
2023/06/12 04:41:28;;;;;;;9.57;6.03;;;;;;;18.74;61.03;101120.72;6038661;28;20508;-67
2023/06/12 04:44:31;;;;;;;10.90;6.37;;;;;;;18.63;60.76;101113.13;6040411;28;20240;-67
2023/06/12 04:47:28;;;;;;;10.65;5.95;;;;;;;18.68;61.05;101124.13;6042424;28;20300;-67
2023/06/12 04:50:25;;;;;;;13.75;6.63;;;;;;;18.72;61.04;101128.13;6051164;28;20022;-67
2023/06/12 04:53:30;;;;;;;8.95;5.97;;;;;;;18.83;60.21;101113.38;6050675;28;20033;-66
2023/06/12 04:56:27;;;;;;;12.07;5.93;;;;;;;18.82;60.24;101133.19;6050529;28;20034;-66
2023/06/12 04:59:22;;;;;;;10.70;6.00;;;;;;;19.09;58.91;101131.63;6048759;28;20120;-65
2023/06/12 05:02:18;;;;;;;12.57;5.57;;;;;;;19.14;58.25;101137.25;6049208;28;20042;-66
2023/06/12 05:05:13;;;;;;;9.07;5.32;;;;;;;18.65;59.42;101127.19;6039467;28;20340;-66
2023/06/12 05:08:08;;;;;;;12.05;6.47;;;;;;;18.59;58.80;101127.13;6049801;28;20377;-67
2023/06/12 05:11:04;;;;;;;10.30;5.50;;;;;;;18.73;58.68;101129.78;6050407;28;20041;-65
2023/06/12 05:13:59;;;;;;;14.30;5.67;;;;;;;18.98;57.40;101143.72;6038330;28;20141;-65
2023/06/12 05:16:55;;;;;;;10.27;5.83;;;;;;;19.25;56.21;101136.75;6035391;28;20420;-67
2023/06/12 05:19:51;;;;;;;10.68;5.60;;;;;;;19.64;55.16;101142.53;6050280;28;20036;-65
2023/06/12 05:22:46;;;;;;;7.40;5.00;;;;;;;20.13;53.10;101134.41;6045939;28;20021;-65
2023/06/12 05:25:42;;;;;;;10.70;5.75;;;;;;;20.27;52.29;101141.56;6049426;28;20481;-65
2023/06/12 05:28:37;;;;;;;8.93;5.20;;;;;;;20.19;52.30;101141.69;6050441;28;20028;-65
2023/06/12 05:31:33;;;;;;;8.60;5.87;;;;;;;20.03;51.53;101134.75;6023200;28;20108;-66
2023/06/12 05:34:28;;;;;;;9.50;5.28;;;;;;;20.29;51.52;101133.28;6049406;28;20485;-66
2023/06/12 05:37:23;;;;;;;11.87;5.17;;;;;;;20.37;50.47;101146.59;6050150;28;20033;-65
2023/06/12 05:40:19;;;;;;;11.65;5.85;;;;;;;19.94;50.52;101135.94;6028324;28;20029;-66
2023/06/12 05:43:14;;;;;;;8.77;5.73;;;;;;;19.97;50.69;101157.09;6046644;28;20025;-66
2023/06/12 05:46:10;;;;;;;10.57;5.22;;;;;;;19.81;50.95;101151.16;6036691;28;20022;-66
2023/06/12 05:49:05;;;;;;;10.90;6.75;;;;;;;20.05;50.64;101154.25;6049868;28;20381;-66
2023/06/12 05:52:02;;;;;;;9.70;5.10;;;;;;;19.68;51.99;101153.72;6049907;28;20376;-66
2023/06/12 05:54:57;;;;;;;11.25;5.72;;;;;;;19.74;51.13;101140.34;6048895;28;20034;-66
2023/06/12 05:57:53;;;;;;;14.63;7.00;;;;;;;20.04;50.19;101147.19;6049851;28;20373;-66
2023/06/12 06:00:49;;;;;;;8.33;5.33;;;;;;;19.89;50.79;101154.53;6049540;28;20097;-66
2023/06/12 06:03:45;;;;;;;9.52;5.28;;;;;;;20.55;50.39;101152.25;6024749;28;20381;-66
2023/06/12 06:06:40;;;;;;;9.00;5.65;;;;;;;20.55;49.06;101160.34;6039819;28;20033;-66
2023/06/12 06:09:35;;;;;;;8.73;5.30;;;;;;;20.59;49.09;101161.63;6049370;28;20034;-66
2023/06/12 06:12:31;;;;;;;9.95;5.60;;;;;;;20.84;48.81;101145.75;6049499;28;20273;-66
2023/06/12 06:15:26;;;;;;;11.83;5.13;;;;;;;20.97;47.91;101159.28;6035749;28;20037;-66
2023/06/12 06:18:21;;;;;;;10.07;4.87;;;;;;;20.98;47.92;101159.06;6046535;28;20042;-67
2023/06/12 06:21:17;;;;;;;8.87;5.17;;;;;;;20.81;48.04;101165.88;6046124;28;20030;-66
2023/06/12 06:24:12;;;;;;;8.87;4.53;;;;;;;21.73;45.91;101172.31;6047412;28;20345;-66
2023/06/12 06:27:08;;;;;;;7.57;4.80;;;;;;;21.46;46.74;101159.84;6049283;28;20026;-66
2023/06/12 06:30:04;;;;;;;7.15;4.68;;;;;;;21.42;47.53;101180.16;6049004;28;20462;-66
2023/06/12 06:33:00;;;;;;;8.70;4.45;;;;;;;22.20;45.48;101190.19;6049396;28;20036;-67
2023/06/12 06:35:55;;;;;;;9.77;5.25;;;;;;;21.93;46.95;101177.75;6035539;28;20030;-66
2023/06/12 06:38:51;;;;;;;6.47;4.33;;;;;;;22.54;45.61;101181.78;6047536;28;20432;-66
2023/06/12 06:41:47;;;;;;;7.97;4.85;;;;;;;23.28;43.51;101183.97;6049242;28;20312;-67
2023/06/12 06:44:42;;;;;;;9.43;5.05;;;;;;;22.09;46.37;101192.69;6047954;28;20033;-66
2023/06/12 06:47:37;;;;;;;9.10;5.80;;;;;;;22.82;44.36;101180.69;6049202;28;20358;-66
2023/06/12 06:50:32;;;;;;;9.83;4.90;;;;;;;22.22;44.91;101171.06;6049040;28;20742;-66
2023/06/12 06:53:28;;;;;;;7.13;4.50;;;;;;;22.11;44.96;101182.50;6016468;28;20089;-66
2023/06/12 06:56:23;;;;;;;6.87;4.33;;;;;;;22.67;43.95;101180.09;6044220;28;20026;-67
2023/06/12 06:59:18;;;;;;;6.72;5.00;;;;;;;22.78;43.33;101192.97;6048336;28;20622;-66
2023/06/12 07:02:14;;;;;;;7.57;4.63;;;;;;;22.71;43.49;101202.97;6047870;28;20030;-67
2023/06/12 07:05:09;;;;;;;9.23;4.30;;;;;;;23.24;42.22;101198.97;6036566;28;20030;-67
2023/06/12 07:08:04;;;;;;;6.43;4.23;;;;;;;23.47;42.53;101199.31;6040017;28;20033;-67
2023/06/12 07:11:00;;;;;;;10.13;4.33;;;;;;;23.41;41.90;101192.06;6044972;28;20022;-67
2023/06/12 07:13:55;;;;;;;6.70;3.70;;;;;;;23.79;41.24;101196.56;6042588;28;20045;-66
2023/06/12 07:16:50;;;;;;;13.73;5.07;;;;;;;23.55;41.34;101182.78;6041021;28;20036;-67
2023/06/12 07:19:45;;;;;;;6.07;4.13;;;;;;;23.39;42.01;101186.03;6048941;28;20273;-67
2023/06/12 07:22:41;;;;;;;8.77;4.70;;;;;;;23.87;41.44;101199.84;6044095;28;20018;-67
2023/06/12 07:25:37;;;;;;;11.83;5.00;;;;;;;23.41;41.79;101194.75;6026702;28;20121;-66
2023/06/12 07:28:32;;;;;;;8.32;4.93;;;;;;;23.70;41.56;101196.84;6048627;28;20058;-66
2023/06/12 07:31:27;;;;;;;7.70;4.27;;;;;;;23.84;41.32;101194.00;6052035;28;20042;-66
2023/06/12 07:34:23;;;;;;;7.70;3.83;;;;;;;24.30;39.55;101199.06;6052546;28;20029;-67
2023/06/12 07:37:20;;;;;;;6.03;3.73;;;;;;;24.26;38.98;101198.69;6052821;28;20045;-67
2023/06/12 07:40:16;;;;;;;7.63;3.85;;;;;;;23.83;39.78;101206.75;6042424;28;20086;-66
2023/06/12 07:43:11;;;;;;;10.10;4.40;;;;;;;23.58;39.96;101195.06;6035631;28;20042;-67
2023/06/12 07:46:06;;;;;;;9.23;4.60;;;;;;;23.91;39.68;101205.66;6052196;28;20481;-66
2023/06/12 07:49:02;;;;;;;5.97;3.77;;;;;;;23.93;40.24;101204.38;6052560;28;20095;-67
2023/06/12 07:51:57;;;;;;;8.20;4.03;;;;;;;23.95;39.08;101196.84;6051972;28;20036;-67
2023/06/12 07:54:52;;;;;;;5.53;3.83;;;;;;;24.36;38.84;101207.13;6051467;28;20033;-67
2023/06/12 07:57:47;;;;;;;5.80;3.70;;;;;;;24.26;38.83;101193.25;6035892;28;20059;-66
2023/06/12 08:00:43;;;;;;;6.93;4.23;;;;;;;23.83;39.23;101208.63;6036395;28;20025;-67
2023/06/12 08:03:39;;;;;;;6.90;3.90;;;;;;;24.04;39.04;101214.50;6051255;28;20108;-67
2023/06/12 08:06:34;;;;;;;5.45;3.45;;;;;;;24.56;38.14;101213.19;6051760;28;20325;-67
2023/06/12 08:09:29;;;;;;;7.50;3.72;;;;;;;24.30;38.48;101197.16;6051832;28;20026;-66
2023/06/12 08:12:25;;;;;;;5.45;3.92;;;;;;;24.25;38.05;101195.13;6047833;28;20029;-67
2023/06/12 08:15:21;;;;;;;8.87;3.97;;;;;;;24.59;38.32;101210.03;6023491;28;20508;-67
2023/06/12 08:18:16;;;;;;;7.05;3.90;;;;;;;25.00;38.43;101193.06;6051479;28;20025;-67
2023/06/12 08:21:12;;;;;;;6.33;3.20;;;;;;;25.21;36.29;101197.16;6049322;28;20042;-66
2023/06/12 08:24:12;;;;;;;7.50;3.40;;;;;;;25.24;34.93;101207.56;6048791;28;20111;-67
2023/06/12 08:27:08;;;;;;;5.18;3.40;;;;;;;25.48;34.72;101203.91;6051516;28;20034;-67
2023/06/12 08:30:04;;;;;;;10.55;3.33;;;;;;;25.16;34.41;101199.72;6039995;28;20045;-66
2023/06/12 08:32:59;;;;;;;6.15;3.15;;;;;;;25.42;34.71;101215.66;6034646;28;20045;-66
2023/06/12 08:35:55;;;;;;;6.27;3.67;;;;;;;25.04;34.65;101201.56;6051409;28;20092;-67
2023/06/12 08:38:51;;;;;;;4.90;3.42;;;;;;;25.12;34.57;101203.94;6051347;28;20030;-67
2023/06/12 08:42:03;;;;;;;7.35;3.28;;;;;;;25.06;35.05;101205.69;6036007;28;20038;-67
2023/06/12 08:45:03;;;;;;;5.72;3.30;;;;;;;25.10;35.54;101206.06;6050554;28;20104;-67
2023/06/12 08:48:00;;;;;;;6.78;3.42;;;;;;;25.11;35.87;101202.31;6050907;28;20029;-67
2023/06/12 08:50:55;;;;;;;10.45;3.50;;;;;;;24.97;35.38;101189.97;6066286;28;20076;-67
2023/06/12 08:53:51;;;;;;;6.88;4.28;;;;;;;25.18;35.31;101195.72;6065453;28;20033;-67
2023/06/12 08:56:46;;;;;;;6.40;3.08;;;;;;;25.52;33.49;101198.84;6023726;28;20031;-67
2023/06/12 08:59:41;;;;;;;8.55;3.70;;;;;;;25.41;33.19;101182.22;6044219;28;20054;-67
2023/06/12 09:02:43;;;;;;;4.80;2.73;;;;;;;25.45;32.70;101174.44;6049404;28;20029;-67
2023/06/12 09:05:39;;;;;;;6.68;2.75;;;;;;;25.67;32.40;101189.19;6050220;28;20037;-67
2023/06/12 09:08:35;;;;;;;6.28;3.08;;;;;;;25.73;31.70;101171.94;6050388;28;20033;-67
2023/06/12 09:11:35;;;;;;;5.60;3.03;;;;;;;25.98;30.64;101169.81;6047259;28;20041;-67
2023/06/12 09:14:34;;;;;;;5.45;2.63;;;;;;;25.66;30.67;101173.94;6040066;28;20096;-67
2023/06/12 09:17:29;;;;;;;6.90;3.28;;;;;;;26.00;30.23;101189.47;6046061;28;20454;-67
2023/06/12 09:20:27;;;;;;;6.25;3.78;;;;;;;26.09;28.75;101178.22;6031845;28;20030;-67
2023/06/12 09:23:22;;;;;;;9.27;4.97;;;;;;;25.72;27.69;101175.72;6041953;28;20037;-67
2023/06/12 09:26:21;;;;;;;8.70;3.53;;;;;;;26.21;27.18;101189.97;6049249;28;20056;-67
2023/06/12 09:29:17;;;;;;;9.23;2.83;;;;;;;26.14;26.38;101181.94;6050753;28;20038;-66
2023/06/12 09:32:13;;;;;;;12.03;4.77;;;;;;;26.24;26.01;101175.88;6053595;28;20037;-67
2023/06/12 09:35:10;;;;;;;7.18;3.15;;;;;;;26.08;27.57;101185.56;6049778;28;20030;-67
2023/06/12 09:38:07;;;;;;;6.95;3.08;;;;;;;25.53;26.34;101179.56;6048796;28;20381;-68
2023/06/12 09:41:05;;;;;;;6.10;2.47;;;;;;;25.90;26.15;101191.91;6050229;28;20029;-67
2023/06/12 09:44:02;;;;;;;5.20;2.90;;;;;;;26.37;25.66;101200.94;6026014;28;20117;-67
2023/06/12 09:47:03;;;;;;;5.57;3.00;;;;;;;26.07;25.88;101191.22;6024155;28;20030;-67
2023/06/12 09:49:58;;;;;;;4.50;2.53;;;;;;;26.02;26.10;101189.22;6047753;28;20062;-67
2023/06/12 09:52:56;;;;;;;6.37;2.10;;;;;;;25.68;26.90;101192.72;6049127;28;20036;-67
2023/06/12 09:55:52;;;;;;;9.82;2.80;;;;;;;25.44;27.21;101208.09;6063901;28;20030;-67
2023/06/12 09:58:48;;;;;;;6.03;2.78;;;;;;;26.12;26.98;101196.81;6049335;28;20068;-67
2023/06/12 10:01:48;;;;;;;5.90;2.90;;;;;;;26.02;26.72;101184.63;6039920;28;20041;-68
2023/06/12 10:05:04;;;;;;;6.18;2.78;;;;;;;26.16;25.99;101192.56;6064045;28;20038;-68
2023/06/12 10:08:00;;;;;;;5.97;2.55;;;;;;;26.21;25.63;101192.66;6049863;28;20145;-68
2023/06/12 10:10:56;;;;;;;4.70;2.80;;;;;;;26.47;26.71;101181.31;6049381;28;20030;-68
2023/06/12 10:13:51;;;;;;;3.88;2.65;;;;;;;26.73;25.99;101169.06;6044475;28;20466;-68
2023/06/12 10:16:47;;;;;;;5.22;2.55;;;;;;;26.31;25.39;101193.72;6030055;28;20034;-68
2023/06/12 10:19:47;;;;;;;5.43;2.70;;;;;;;26.11;26.07;101186.97;6042698;28;20447;-68
2023/06/12 10:22:43;;;;;;;5.55;2.88;;;;;;;26.31;25.10;101168.44;6045015;28;20037;-68
2023/06/12 10:25:38;;;;;;;5.55;2.80;;;;;;;26.08;25.32;101166.53;6048571;28;20053;-68
2023/06/12 10:28:34;;;;;;;8.38;2.40;;;;;;;26.60;25.02;101181.88;6049655;28;20044;-68
2023/06/12 10:31:30;;;;;;;3.90;2.67;;;;;;;26.49;24.59;101173.72;6049341;28;20092;-68
2023/06/12 10:34:27;;;;;;;6.38;3.00;;;;;;;26.83;24.82;101170.13;6038720;28;20315;-66
2023/06/12 10:37:24;;;;;;;7.32;2.53;;;;;;;26.53;24.89;101173.00;6049284;28;20030;-66
2023/06/12 10:40:21;;;;;;;8.52;2.58;;;;;;;26.92;24.12;101152.34;6049079;28;20500;-66
2023/06/12 10:43:24;;;;;;;6.55;2.80;;;;;;;26.82;24.73;101162.22;6048943;28;20025;-67
2023/06/12 10:46:19;;;;;;;5.60;2.80;;;;;;;26.77;25.03;101152.00;6049053;28;20030;-67
2023/06/12 10:49:17;;;;;;;6.50;2.85;;;;;;;26.83;24.54;101142.91;6031596;28;20041;-67
2023/06/12 10:52:21;;;;;;;6.72;2.65;;;;;;;27.13;25.18;101099.91;6047744;28;20026;-67
2023/06/12 10:55:21;;;;;;;6.38;2.80;;;;;;;26.97;25.03;101151.59;6041190;28;20053;-67
2023/06/12 10:58:20;;;;;;;6.55;2.90;;;;;;;26.77;24.46;101132.94;6038420;28;20048;-66
2023/06/12 11:01:17;;;;;;;5.72;2.42;;;;;;;26.72;23.56;101135.56;6048852;28;20022;-67
2023/06/12 11:04:12;;;;;;;5.97;2.53;;;;;;;26.74;23.06;101133.44;6047021;28;20381;-67
2023/06/12 11:07:07;;;;;;;5.20;2.57;;;;;;;26.99;23.50;101144.00;6037938;28;20043;-66
2023/06/12 11:10:09;;;;;;;5.85;2.47;;;;;;;27.03;23.50;101131.56;6068764;28;20109;-67
2023/06/12 11:13:04;;;;;;;5.75;2.60;;;;;;;27.30;23.09;101120.88;6053634;28;20025;-67
2023/06/12 11:16:00;;;;;;;6.50;2.67;;;;;;;27.42;22.57;101138.84;6039763;28;20127;-67
2023/06/12 11:19:05;;;;;;;6.63;2.88;;;;;;;27.31;22.54;101134.28;6048959;28;20034;-66
2023/06/12 11:22:03;;;;;;;5.38;2.53;;;;;;;26.91;23.10;101112.56;6034396;28;20033;-66
2023/06/12 11:25:03;;;;;;;5.22;2.33;;;;;;;26.95;23.06;101118.34;6052736;28;20045;-66
2023/06/12 11:27:58;;;;;;;6.35;2.65;;;;;;;26.94;21.97;101128.41;6053063;28;20052;-67
2023/06/12 11:30:53;;;;;;;6.33;2.40;;;;;;;26.94;21.73;101133.84;6053107;28;20453;-66
2023/06/12 11:33:49;;;;;;;7.15;2.65;;;;;;;27.12;21.67;101120.03;6052453;28;20025;-66
2023/06/12 11:36:44;;;;;;;6.20;2.70;;;;;;;27.11;21.45;101118.41;6048488;28;20042;-69
2023/06/12 11:39:40;;;;;;;5.20;2.50;;;;;;;27.19;21.82;101114.44;6045848;28;20025;-68
2023/06/12 11:42:43;;;;;;;7.20;2.63;;;;;;;27.42;21.17;101116.25;6052715;28;20037;-68
2023/06/12 11:45:41;;;;;;;5.20;2.78;;;;;;;27.38;21.80;101112.31;6052341;28;20443;-66
2023/06/12 11:48:36;;;;;;;5.68;2.30;;;;;;;27.52;21.41;101109.06;6067462;28;20115;-66
2023/06/12 11:51:32;;;;;;;5.40;2.50;;;;;;;27.71;20.24;101090.53;6052424;28;20033;-66
2023/06/12 11:54:28;;;;;;;6.60;2.40;;;;;;;27.44;20.45;101100.47;6042430;28;20033;-66
2023/06/12 11:57:26;;;;;;;5.70;2.53;;;;;;;27.91;19.22;101095.47;6052464;28;20484;-66
2023/06/12 12:00:22;;;;;;;7.47;2.47;;;;;;;27.90;19.62;101091.91;6052627;28;20021;-67
2023/06/12 12:03:17;;;;;;;8.63;2.47;;;;;;;27.61;19.86;101098.56;6051752;28;20028;-67
2023/06/12 12:06:17;;;;;;;5.13;2.45;;;;;;;27.19;20.81;101090.75;6053012;28;20061;-67
2023/06/12 12:09:12;;;;;;;5.95;2.70;;;;;;;27.01;20.97;101096.44;6053894;28;20026;-67
2023/06/12 12:12:09;;;;;;;4.82;2.40;;;;;;;27.21;20.43;101085.06;6043427;28;20424;-67
2023/06/12 12:15:06;;;;;;;5.65;2.58;;;;;;;27.29;20.22;101086.56;6038057;28;20437;-67
2023/06/12 12:18:01;;;;;;;5.32;2.55;;;;;;;27.62;20.78;101079.22;6044675;28;20027;-67
2023/06/12 12:20:57;;;;;;;8.00;3.00;;;;;;;27.96;21.96;101099.09;6036832;28;20049;-67
2023/06/12 12:23:53;;;;;;;7.30;2.57;;;;;;;27.42;21.83;101078.09;6047215;28;20523;-67
2023/06/12 12:26:51;;;;;;;4.07;2.55;;;;;;;27.22;22.51;101064.91;6043314;28;20069;-67
2023/06/12 12:29:46;;;;;;;5.28;2.63;;;;;;;26.93;23.35;101094.06;6051827;28;20022;-67
2023/06/12 12:32:46;;;;;;;5.57;2.80;;;;;;;27.39;22.93;101076.66;6051544;28;20381;-67
2023/06/12 12:35:42;;;;;;;6.10;3.05;;;;;;;27.09;23.88;101071.53;6051176;28;20036;-67
2023/06/12 12:38:38;;;;;;;7.22;3.20;;;;;;;27.22;24.08;101081.25;6051464;28;20029;-67
2023/06/12 12:41:35;;;;;;;7.10;3.17;;;;;;;27.29;24.26;101070.22;6051716;28;20037;-67
2023/06/12 12:44:30;;;;;;;7.15;3.15;;;;;;;27.39;24.23;101078.56;6039463;28;20037;-67
2023/06/12 12:47:26;;;;;;;6.23;3.30;;;;;;;27.30;24.26;101069.97;6051105;28;20040;-68
2023/06/12 12:50:21;;;;;;;6.63;3.00;;;;;;;27.82;23.69;101078.72;6066720;28;20030;-67
2023/06/12 12:53:17;;;;;;;6.28;3.28;;;;;;;27.64;23.93;101057.19;6050546;28;20384;-67
2023/06/12 12:56:15;;;;;;;8.07;3.85;;;;;;;28.02;23.32;101068.09;6050843;28;20377;-67
2023/06/12 12:59:10;;;;;;;5.32;3.38;;;;;;;27.56;24.80;101072.03;6044924;28;20064;-67
2023/06/12 13:02:06;;;;;;;5.37;3.43;;;;;;;27.63;24.23;101047.34;6050772;28;20503;-67
2023/06/12 13:05:03;;;;;;;5.93;2.93;;;;;;;27.84;24.42;101057.47;6050358;28;20284;-67
2023/06/12 13:07:58;;;;;;;4.82;3.03;;;;;;;27.77;24.04;101046.75;6050751;28;20116;-67
2023/06/12 13:10:53;;;;;;;5.37;2.90;;;;;;;27.93;24.12;101044.22;6050937;28;20032;-68
2023/06/12 13:13:51;;;;;;;4.70;3.03;;;;;;;28.01;23.92;101057.44;6046124;28;20031;-67
2023/06/12 13:16:46;;;;;;;5.68;3.30;;;;;;;27.73;23.37;101052.94;6027377;28;20436;-67
2023/06/12 13:19:42;;;;;;;6.70;3.17;;;;;;;27.84;23.63;101052.00;6039019;28;20072;-67
2023/06/12 13:22:38;;;;;;;5.40;3.00;;;;;;;27.80;23.53;101053.59;6045886;28;20030;-67
2023/06/12 13:25:33;;;;;;;7.30;3.10;;;;;;;27.90;23.75;101044.72;6049933;28;20260;-67
2023/06/12 13:28:30;;;;;;;10.38;2.80;;;;;;;27.57;23.64;101045.63;6049687;28;20052;-67
2023/06/12 13:31:26;;;;;;;8.48;3.15;;;;;;;27.83;23.23;101050.34;6044445;28;20018;-67
2023/06/12 13:34:21;;;;;;;7.38;3.40;;;;;;;27.39;23.25;101043.13;6049955;28;20500;-67
2023/06/12 13:37:16;;;;;;;7.87;3.10;;;;;;;27.73;23.21;101020.22;6050287;28;20030;-68